Hayward, WI (54843)

6:35 PM CDT on July 07, 2015 (GMT -0500)
Three miles west of Seeley | | Change Station
CLOSE
Current Station
Personal Weather Station
Location: Seeley, WI
Elevation: 1338 ft
Nearby Weather Stations

Elev 1338 ft 46.13 °N, 91.40 °W | Updated 12 seconds ago

Clear
Clear
66.4 °F
Feels Like 66.4 °F
N
0.0
Wind Variable Wind from ENE
Gusts 0.0 mph

Today
High -- | Low -- °F
--% Chance of Precip.
Yesterday
High -- | Low -- °F
Precip. -- in
5:22 AM 8:58 PM
Waning Gibbous, 60% visible
Pressure 30.12 in
Visibility 10.0 miles
Clouds Clear
Dew Point 45 °F
Humidity 46%
Rainfall 0.00 in
Snow Depth Not available.
UV 3 out of 12
Pollen 4.30 out of 12
Air Quality Not available.
Flu Activity Not available.
METAR KHYR 072253Z AUTO VRB05KT 10SM CLR 21/06 A3012 RMK AO2 SLP199 T02060061

More Conditions Fewer Conditions

Pressure 30.12 in
Visibility 10.0 miles
Clouds Clear
Dew Point 45 °F
Humidity 46%
Rainfall 0.00 in
Snow Depth Not available.
UV 3 out of 12
Pollen 4.30 out of 12
Air Quality Not available.
Flu Activity Not available.
METAR KHYR 072253Z AUTO VRB05KT 10SM CLR 21/06 A3012 RMK AO2 SLP199 T02060061

More Conditions Fewer Conditions

10-Day Weather Forecast

×

Almanac

Astronomy

Jul. 07, 2015 Rise Set
Actual Time
Civil Twilight
Nautical Twilight
Astronomical Twilight
Moon
Length of Visible Light
Length of Day
Tomorrow will be .
, % of the Moon is Illuminated

Today's Extremes

State Highs State Lows

Community

WunderPhotos

Upload Photos

1,835,961 photos uploaded!

WunderBlogs® & News

Nearby

Air Quality

  Air Quality AQ Index Pollutant
Not available.

Snow Depth

Station Depth Elevation

Earthquake Activity

City Distance Mag. Time & Date
Minimum magnitude displayed is 2.5.

Coastal Water Temperatures

Place Temperature

Stations

Nearby Weather Stations

Station Location Temp. Windchill Dew Point Humidity Wind Precip. Elev Updated Type